Time;durP1;ratioP1;P1;durP2;ratioP2;P2;SDS_P1;SDS_P2;PMS_P1;PMS_P2;Temp;Humidity;BMP_temperature;BMP_pressure;BME280_temperature;BME280_humidity;BME280_pressure;Samples;Min_cycle;Max_cycle;Signal;HPM_P1;HPM_P2
2023/01/07 00:00:53;;;;;;;1.70;0.70;;;;;;;;;;5086231;28;20946;-39
2023/01/07 00:03:19;;;;;;;1.98;1.20;;;;;;;;;;5076931;28;20025;-39
2023/01/07 00:05:45;;;;;;;1.45;0.75;;;;;;;;;;5050734;28;20131;-39
2023/01/07 00:08:11;;;;;;;1.75;0.80;;;;;;;;;;5050706;28;20109;-39
2023/01/07 00:10:37;;;;;;;1.13;1.00;;;;;;;;;;5051241;28;20024;-39
2023/01/07 00:13:03;;;;;;;0.85;0.52;;;;;;;;;;5050134;28;20021;-39
2023/01/07 00:15:29;;;;;;;1.33;0.90;;;;;;;;;;5051614;28;20037;-39
2023/01/07 00:17:55;;;;;;;1.23;1.13;;;;;;;;;;5050416;28;20021;-40
2023/01/07 00:20:21;;;;;;;0.90;0.80;;;;;;;;;;5051459;28;20378;-39
2023/01/07 00:22:49;;;;;;;1.15;0.77;;;;;;;;;;5051103;28;20051;-40
2023/01/07 00:25:15;;;;;;;1.02;0.70;;;;;;;;;;5051491;28;20052;-39
2023/01/07 00:27:41;;;;;;;1.23;0.80;;;;;;;;;;5051473;28;20111;-39
2023/01/07 00:30:08;;;;;;;1.73;1.10;;;;;;;;;;5049691;28;20033;-39
2023/01/07 00:32:52;;;;;;;0.80;0.80;;;;;;;;;;5053143;28;20052;-38
2023/01/07 00:35:24;;;;;;;0.82;0.60;;;;;;;;;;5063121;28;20020;-39
2023/01/07 00:37:51;;;;;;;0.98;0.70;;;;;;;;;;5094654;28;20027;-40
2023/01/07 00:40:17;;;;;;;1.63;1.00;;;;;;;;;;5095430;28;20035;-39
2023/01/07 00:42:53;;;;;;;0.90;0.73;;;;;;;;;;5095070;28;20030;-39
2023/01/07 00:45:19;;;;;;;0.82;0.70;;;;;;;;;;5095558;28;20487;-39
2023/01/07 00:47:45;;;;;;;0.88;0.60;;;;;;;;;;5095543;28;20423;-39
2023/01/07 00:50:11;;;;;;;0.60;0.50;;;;;;;;;;5094209;28;20024;-39
2023/01/07 00:52:36;;;;;;;1.02;0.63;;;;;;;;;;5094637;28;20047;-39
2023/01/07 00:55:02;;;;;;;0.65;0.60;;;;;;;;;;5094326;28;20020;-39
2023/01/07 00:57:28;;;;;;;1.48;0.88;;;;;;;;;;5089930;28;20024;-39
2023/01/07 00:59:54;;;;;;;0.88;0.63;;;;;;;;;;5073299;28;20028;-39
2023/01/07 01:02:20;;;;;;;1.08;0.80;;;;;;;;;;5055794;28;20025;-39
2023/01/07 01:04:46;;;;;;;1.15;0.90;;;;;;;;;;5053329;28;20462;-40
2023/01/07 01:07:12;;;;;;;1.35;0.70;;;;;;;;;;5053550;28;20041;-38
2023/01/07 01:09:38;;;;;;;1.27;0.90;;;;;;;;;;5054161;28;20511;-39
2023/01/07 01:12:04;;;;;;;0.80;0.73;;;;;;;;;;5053749;28;20029;-39
2023/01/07 01:14:30;;;;;;;1.10;0.70;;;;;;;;;;5054076;28;20032;-39
2023/01/07 01:16:56;;;;;;;1.48;1.00;;;;;;;;;;5053541;28;20017;-39
2023/01/07 01:19:22;;;;;;;0.93;0.63;;;;;;;;;;5053999;28;20140;-38
2023/01/07 01:21:48;;;;;;;0.98;0.77;;;;;;;;;;5053738;28;20139;-40
2023/01/07 01:24:14;;;;;;;1.48;0.68;;;;;;;;;;5053330;28;20021;-39
2023/01/07 01:26:40;;;;;;;1.38;0.85;;;;;;;;;;5054376;28;20544;-39
2023/01/07 01:29:06;;;;;;;0.82;0.52;;;;;;;;;;5053090;28;20017;-39
2023/01/07 01:31:32;;;;;;;0.93;0.70;;;;;;;;;;5053500;28;20036;-39
2023/01/07 01:33:58;;;;;;;1.08;0.82;;;;;;;;;;5052952;28;20021;-39
2023/01/07 01:36:25;;;;;;;1.05;0.80;;;;;;;;;;5080309;28;20028;-39
2023/01/07 01:38:51;;;;;;;1.27;0.80;;;;;;;;;;5092964;28;20107;-39
2023/01/07 01:41:17;;;;;;;1.40;0.82;;;;;;;;;;5094142;28;20020;-39
2023/01/07 01:43:46;;;;;;;0.65;0.50;;;;;;;;;;5092709;28;20031;-39
2023/01/07 01:46:14;;;;;;;1.33;0.70;;;;;;;;;;5094077;28;20024;-39
2023/01/07 01:48:44;;;;;;;0.60;0.60;;;;;;;;;;5093778;28;20024;-39
2023/01/07 01:51:10;;;;;;;0.73;0.70;;;;;;;;;;5093115;28;20492;-39
2023/01/07 01:53:37;;;;;;;1.10;0.70;;;;;;;;;;5093225;28;20078;-39
2023/01/07 01:56:13;;;;;;;1.20;0.77;;;;;;;;;;5093218;28;20031;-39
2023/01/07 01:58:45;;;;;;;0.88;0.70;;;;;;;;;;5093265;28;20453;-39
2023/01/07 02:01:11;;;;;;;0.60;0.50;;;;;;;;;;5075441;28;20056;-39
2023/01/07 02:03:38;;;;;;;1.25;0.82;;;;;;;;;;5069252;28;20028;-39
2023/01/07 02:06:04;;;;;;;0.68;0.60;;;;;;;;;;5072272;28;20052;-38
2023/01/07 02:08:30;;;;;;;0.82;0.70;;;;;;;;;;5072743;28;20503;-39
2023/01/07 02:11:16;;;;;;;0.60;0.50;;;;;;;;;;5072637;28;20066;-39
2023/01/07 02:14:03;;;;;;;1.00;0.70;;;;;;;;;;5041675;28;20044;-39
2023/01/07 02:16:29;;;;;;;1.27;0.80;;;;;;;;;;5073246;28;20379;-39
2023/01/07 02:19:23;;;;;;;0.70;0.50;;;;;;;;;;5071887;28;20039;-39
2023/01/07 02:21:52;;;;;;;0.57;0.52;;;;;;;;;;5072979;28;20074;-40
2023/01/07 02:24:27;;;;;;;0.93;0.80;;;;;;;;;;5072773;28;20039;-39
2023/01/07 02:27:00;;;;;;;1.02;0.70;;;;;;;;;;5072367;28;20029;-39
2023/01/07 02:29:51;;;;;;;0.88;0.50;;;;;;;;;;5072685;28;20024;-40
2023/01/07 02:32:24;;;;;;;1.17;0.77;;;;;;;;;;5055277;28;20025;-39
2023/01/07 02:35:16;;;;;;;1.27;0.80;;;;;;;;;;5051829;28;20043;-39
2023/01/07 02:37:57;;;;;;;0.80;0.45;;;;;;;;;;5053417;28;20024;-39
2023/01/07 02:40:43;;;;;;;1.15;0.80;;;;;;;;;;5052773;28;20029;-38
2023/01/07 02:43:27;;;;;;;0.75;0.65;;;;;;;;;;5051735;28;20052;-39
2023/01/07 02:46:01;;;;;;;0.80;0.63;;;;;;;;;;5052135;28;20021;-39
2023/01/07 02:48:27;;;;;;;0.70;0.60;;;;;;;;;;5052204;28;20468;-39
2023/01/07 02:50:53;;;;;;;0.52;0.40;;;;;;;;;;5052012;28;20108;-39
2023/01/07 02:53:20;;;;;;;0.80;0.55;;;;;;;;;;5052015;28;20096;-39
2023/01/07 02:55:46;;;;;;;0.80;0.60;;;;;;;;;;5051904;28;20025;-41
2023/01/07 02:58:27;;;;;;;0.50;0.50;;;;;;;;;;5062941;28;20016;-39
2023/01/07 03:01:05;;;;;;;1.00;0.50;;;;;;;;;;5066287;28;20582;-39
2023/01/07 03:03:53;;;;;;;0.70;0.45;;;;;;;;;;5051963;28;20029;-39
2023/01/07 03:06:25;;;;;;;0.57;0.47;;;;;;;;;;5051924;28;20049;-39
2023/01/07 03:08:51;;;;;;;0.82;0.70;;;;;;;;;;5050872;28;20027;-39
2023/01/07 03:11:18;;;;;;;0.95;0.70;;;;;;;;;;5052422;28;20100;-39
2023/01/07 03:13:48;;;;;;;1.08;0.70;;;;;;;;;;5051673;28;20025;-39
2023/01/07 03:16:27;;;;;;;0.65;0.60;;;;;;;;;;5052202;28;20025;-39
2023/01/07 03:19:00;;;;;;;1.08;0.75;;;;;;;;;;5051068;28;20029;-39
2023/01/07 03:21:26;;;;;;;0.63;0.50;;;;;;;;;;5052194;28;20052;-39
2023/01/07 03:23:54;;;;;;;1.38;0.63;;;;;;;;;;5050897;28;20025;-39
2023/01/07 03:26:22;;;;;;;0.80;0.50;;;;;;;;;;5051759;28;20524;-38
2023/01/07 03:28:50;;;;;;;0.60;0.52;;;;;;;;;;5051094;28;20036;-40
2023/01/07 03:31:18;;;;;;;0.93;0.50;;;;;;;;;;5052346;28;20537;-39
2023/01/07 03:34:02;;;;;;;0.80;0.40;;;;;;;;;;5051378;28;20033;-39
2023/01/07 03:36:44;;;;;;;0.30;0.30;;;;;;;;;;5079229;28;20030;-39
2023/01/07 03:39:11;;;;;;;0.30;0.30;;;;;;;;;;5090993;28;20036;-39
2023/01/07 03:44:23;;;;;;;1.02;0.50;;;;;;;;;;5091870;28;20030;-39
2023/01/07 03:46:49;;;;;;;0.88;0.65;;;;;;;;;;5091627;28;20098;-40
2023/01/07 03:49:15;;;;;;;0.50;0.50;;;;;;;;;;5091742;28;20032;-39
2023/01/07 03:51:41;;;;;;;0.95;0.70;;;;;;;;;;5091809;28;20032;-39
2023/01/07 03:54:07;;;;;;;0.65;0.50;;;;;;;;;;5090915;28;20027;-39
2023/01/07 03:56:33;;;;;;;0.63;0.50;;;;;;;;;;5091862;28;20354;-38
2023/01/07 03:58:59;;;;;;;0.50;0.50;;;;;;;;;;5072690;28;20032;-39
2023/01/07 04:01:26;;;;;;;0.77;0.77;;;;;;;;;;5072977;28;20028;-39
2023/01/07 04:03:52;;;;;;;0.55;0.45;;;;;;;;;;5071225;28;20146;-39
2023/01/07 04:06:18;;;;;;;0.47;0.40;;;;;;;;;;5063742;28;20494;-39
2023/01/07 04:08:44;;;;;;;0.65;0.50;;;;;;;;;;5055118;28;20029;-39
2023/01/07 04:11:10;;;;;;;0.88;0.50;;;;;;;;;;5037095;28;20104;-39
2023/01/07 04:13:36;;;;;;;0.50;0.50;;;;;;;;;;5055369;28;20024;-39
2023/01/07 04:16:02;;;;;;;0.50;0.50;;;;;;;;;;5054846;28;20017;-39
2023/01/07 04:18:28;;;;;;;0.65;0.50;;;;;;;;;;5054806;28;20458;-39
2023/01/07 04:20:54;;;;;;;1.08;0.70;;;;;;;;;;5054551;28;20037;-39
2023/01/07 04:23:20;;;;;;;0.70;0.50;;;;;;;;;;5055131;28;20025;-39
2023/01/07 04:25:46;;;;;;;0.65;0.43;;;;;;;;;;5055466;28;20392;-40
2023/01/07 04:28:13;;;;;;;0.55;0.40;;;;;;;;;;5053932;28;20470;-39
2023/01/07 04:30:39;;;;;;;0.50;0.50;;;;;;;;;;5062714;28;20028;-39
2023/01/07 04:33:05;;;;;;;0.93;0.68;;;;;;;;;;5094468;28;20028;-39
2023/01/07 04:35:32;;;;;;;0.80;0.52;;;;;;;;;;5089775;28;20044;-39
2023/01/07 04:37:58;;;;;;;0.40;0.35;;;;;;;;;;5074077;28;20047;-39
2023/01/07 04:40:24;;;;;;;1.58;0.50;;;;;;;;;;5058386;28;20039;-39
2023/01/07 04:42:50;;;;;;;0.50;0.40;;;;;;;;;;5053882;28;20029;-40
2023/01/07 04:45:16;;;;;;;0.85;0.50;;;;;;;;;;5054940;28;20021;-39
2023/01/07 04:47:42;;;;;;;0.70;0.43;;;;;;;;;;5055093;28;20036;-39
2023/01/07 04:50:08;;;;;;;2.38;0.70;;;;;;;;;;5053884;28;20246;-39
2023/01/07 04:52:34;;;;;;;0.60;0.50;;;;;;;;;;5054822;28;20025;-39
2023/01/07 04:55:00;;;;;;;0.57;0.57;;;;;;;;;;5053552;28;20100;-39
2023/01/07 04:57:26;;;;;;;0.80;0.50;;;;;;;;;;5059918;28;20032;-39
2023/01/07 04:59:52;;;;;;;0.52;0.40;;;;;;;;;;5073474;28;20021;-39
2023/01/07 05:02:18;;;;;;;0.80;0.60;;;;;;;;;;5056373;28;20036;-40
2023/01/07 05:04:44;;;;;;;0.50;0.50;;;;;;;;;;5057849;28;20458;-39
2023/01/07 05:07:10;;;;;;;0.80;0.50;;;;;;;;;;5053195;28;20056;-39
2023/01/07 05:09:36;;;;;;;0.70;0.50;;;;;;;;;;5054039;28;20024;-39
2023/01/07 05:12:02;;;;;;;0.50;0.45;;;;;;;;;;5054211;28;20078;-39
2023/01/07 05:14:28;;;;;;;0.70;0.70;;;;;;;;;;5054095;28;20385;-39
2023/01/07 05:16:54;;;;;;;1.05;0.60;;;;;;;;;;5053410;28;20025;-39
2023/01/07 05:19:20;;;;;;;0.60;0.50;;;;;;;;;;5053599;28;20420;-39
2023/01/07 05:21:46;;;;;;;0.73;0.30;;;;;;;;;;5054125;28;20033;-40
2023/01/07 05:24:12;;;;;;;0.52;0.50;;;;;;;;;;5053673;28;20025;-39
2023/01/07 05:26:38;;;;;;;1.05;0.45;;;;;;;;;;5054055;28;20020;-39
2023/01/07 05:29:04;;;;;;;0.70;0.50;;;;;;;;;;5053202;28;20116;-39
2023/01/07 05:31:30;;;;;;;0.57;0.50;;;;;;;;;;5054381;28;20025;-39
2023/01/07 05:33:56;;;;;;;0.52;0.52;;;;;;;;;;5052868;28;20092;-39
2023/01/07 05:36:22;;;;;;;0.57;0.45;;;;;;;;;;5079764;28;20026;-39
2023/01/07 05:38:48;;;;;;;1.00;0.60;;;;;;;;;;5093277;28;20078;-40
2023/01/07 05:41:14;;;;;;;0.98;0.60;;;;;;;;;;5056046;28;20033;-39
2023/01/07 05:43:40;;;;;;;0.82;0.50;;;;;;;;;;5053578;28;20028;-39
2023/01/07 05:46:06;;;;;;;1.85;0.40;;;;;;;;;;5053073;28;20047;-39
2023/01/07 05:48:32;;;;;;;0.75;0.60;;;;;;;;;;5053589;28;20021;-39
2023/01/07 05:50:58;;;;;;;1.17;0.70;;;;;;;;;;5053065;28;20518;-39
2023/01/07 05:53:24;;;;;;;1.00;0.90;;;;;;;;;;5053235;28;20105;-39
2023/01/07 05:55:57;;;;;;;0.98;0.60;;;;;;;;;;5053146;28;20466;-39
2023/01/07 05:58:23;;;;;;;1.60;1.25;;;;;;;;;;5065519;28;20373;-39
2023/01/07 06:00:49;;;;;;;0.98;0.80;;;;;;;;;;5066435;28;20029;-40
2023/01/07 06:03:15;;;;;;;0.90;0.60;;;;;;;;;;5053272;28;20477;-39
2023/01/07 06:05:41;;;;;;;1.17;0.60;;;;;;;;;;5052551;28;20053;-39
2023/01/07 06:08:07;;;;;;;0.90;0.75;;;;;;;;;;5052206;28;20028;-39
2023/01/07 06:10:34;;;;;;;1.13;0.60;;;;;;;;;;5053660;28;20496;-38
2023/01/07 06:13:01;;;;;;;1.45;0.75;;;;;;;;;;5051981;28;20037;-39
2023/01/07 06:15:26;;;;;;;0.95;0.73;;;;;;;;;;5053494;28;20029;-39
2023/01/07 06:17:52;;;;;;;1.08;0.80;;;;;;;;;;5052237;28;20489;-39
2023/01/07 06:20:18;;;;;;;0.95;0.60;;;;;;;;;;5053252;28;20063;-39
2023/01/07 06:22:44;;;;;;;0.70;0.63;;;;;;;;;;5053092;28;20036;-39
2023/01/07 06:25:11;;;;;;;1.45;0.60;;;;;;;;;;5052158;28;20025;-39
2023/01/07 06:27:37;;;;;;;1.25;0.80;;;;;;;;;;5053116;28;20044;-39
2023/01/07 06:30:04;;;;;;;1.58;1.13;;;;;;;;;;5051143;28;20029;-39
2023/01/07 06:32:30;;;;;;;1.60;0.60;;;;;;;;;;5052953;28;20036;-39
2023/01/07 06:34:56;;;;;;;1.63;0.70;;;;;;;;;;5053531;28;20083;-39
2023/01/07 06:37:22;;;;;;;0.88;0.60;;;;;;;;;;5069619;28;20033;-39
2023/01/07 06:39:48;;;;;;;1.05;0.75;;;;;;;;;;5052043;28;20108;-40
2023/01/07 06:42:14;;;;;;;0.80;0.70;;;;;;;;;;5052352;28;20029;-39
2023/01/07 06:44:40;;;;;;;0.68;0.60;;;;;;;;;;5052450;28;20545;-39
2023/01/07 06:47:06;;;;;;;1.10;0.80;;;;;;;;;;5051770;28;20029;-39
2023/01/07 06:49:32;;;;;;;1.02;0.70;;;;;;;;;;5052265;28;20017;-39
2023/01/07 06:51:58;;;;;;;1.73;0.93;;;;;;;;;;5051861;28;20017;-39
2023/01/07 06:54:24;;;;;;;0.85;0.60;;;;;;;;;;5052281;28;20367;-39
2023/01/07 06:56:50;;;;;;;0.88;0.50;;;;;;;;;;5051899;28;20028;-40
2023/01/07 06:59:16;;;;;;;0.82;0.57;;;;;;;;;;5072260;28;20036;-39
2023/01/07 07:01:42;;;;;;;1.67;0.95;;;;;;;;;;5072430;28;20054;-39
2023/01/07 07:04:08;;;;;;;1.30;0.70;;;;;;;;;;5053546;28;20025;-39
2023/01/07 07:06:34;;;;;;;0.93;0.70;;;;;;;;;;5060112;28;20133;-39
2023/01/07 07:08:59;;;;;;;0.80;0.50;;;;;;;;;;5051285;28;20112;-39
2023/01/07 07:11:25;;;;;;;1.05;0.65;;;;;;;;;;5052165;28;20386;-39
2023/01/07 07:13:51;;;;;;;0.45;0.43;;;;;;;;;;5051177;28;20152;-39
2023/01/07 07:16:18;;;;;;;1.65;0.70;;;;;;;;;;5052351;28;20025;-39
2023/01/07 07:18:43;;;;;;;1.05;0.60;;;;;;;;;;5051880;28;20033;-39
2023/01/07 07:21:09;;;;;;;1.00;0.70;;;;;;;;;;5051379;28;20032;-39
2023/01/07 07:23:35;;;;;;;0.43;0.43;;;;;;;;;;5051622;28;20025;-39
2023/01/07 07:26:01;;;;;;;1.15;0.60;;;;;;;;;;5050914;28;20025;-38
2023/01/07 07:28:27;;;;;;;1.00;0.73;;;;;;;;;;5051511;28;20116;-39
2023/01/07 07:30:53;;;;;;;1.17;0.55;;;;;;;;;;5051035;28;20112;-39
2023/01/07 07:33:19;;;;;;;0.63;0.52;;;;;;;;;;5051230;28;20029;-38
2023/01/07 07:35:45;;;;;;;1.15;0.82;;;;;;;;;;5067271;28;20111;-39
2023/01/07 07:38:11;;;;;;;0.90;0.50;;;;;;;;;;5091346;28;20035;-39
2023/01/07 07:40:37;;;;;;;0.57;0.50;;;;;;;;;;5091683;28;20146;-39
2023/01/07 07:43:03;;;;;;;0.63;0.52;;;;;;;;;;5090982;28;20111;-39
2023/01/07 07:45:29;;;;;;;0.70;0.50;;;;;;;;;;5092249;28;20530;-39
2023/01/07 07:47:55;;;;;;;0.70;0.50;;;;;;;;;;5090677;28;20050;-39
2023/01/07 07:50:21;;;;;;;0.93;0.60;;;;;;;;;;5092198;28;20038;-39
2023/01/07 07:52:47;;;;;;;0.88;0.60;;;;;;;;;;5091704;28;20058;-40
2023/01/07 07:55:13;;;;;;;1.25;0.80;;;;;;;;;;5091576;28;20063;-39
2023/01/07 07:57:39;;;;;;;0.65;0.57;;;;;;;;;;5085073;28;20017;-39
2023/01/07 08:00:06;;;;;;;1.73;0.70;;;;;;;;;;5068202;28;20853;-39
2023/01/07 08:02:32;;;;;;;0.47;0.40;;;;;;;;;;5051394;28;20029;-39
2023/01/07 08:04:58;;;;;;;0.73;0.50;;;;;;;;;;5050547;28;20017;-39
2023/01/07 08:07:23;;;;;;;0.80;0.60;;;;;;;;;;5051592;28;20041;-39
2023/01/07 08:09:49;;;;;;;1.23;0.57;;;;;;;;;;5050693;28;20088;-40
2023/01/07 08:12:15;;;;;;;0.70;0.55;;;;;;;;;;5051722;28;20488;-39
2023/01/07 08:14:41;;;;;;;0.63;0.47;;;;;;;;;;5050987;28;20104;-39
2023/01/07 08:17:07;;;;;;;1.65;1.05;;;;;;;;;;5050873;28;20211;-39
2023/01/07 08:19:33;;;;;;;0.50;0.50;;;;;;;;;;5050183;28;20032;-39
2023/01/07 08:21:59;;;;;;;0.52;0.38;;;;;;;;;;5058984;28;20036;-39
2023/01/07 08:24:25;;;;;;;0.68;0.50;;;;;;;;;;5051159;28;20152;-39
2023/01/07 08:26:54;;;;;;;0.40;0.40;;;;;;;;;;5050832;28;20025;-39
2023/01/07 08:29:20;;;;;;;0.60;0.40;;;;;;;;;;5050367;28;20471;-39
2023/01/07 08:31:46;;;;;;;1.08;0.57;;;;;;;;;;5050868;28;20036;-39
2023/01/07 08:34:12;;;;;;;0.60;0.47;;;;;;;;;;5050497;28;20108;-39
2023/01/07 08:36:38;;;;;;;0.75;0.50;;;;;;;;;;5068564;28;20123;-39
2023/01/07 08:39:04;;;;;;;2.47;0.57;;;;;;;;;;5090192;28;20032;-39
2023/01/07 08:41:30;;;;;;;1.02;0.60;;;;;;;;;;5091570;28;20020;-38
2023/01/07 08:43:56;;;;;;;1.05;0.60;;;;;;;;;;5090022;28;20020;-39
2023/01/07 08:46:22;;;;;;;0.50;0.50;;;;;;;;;;5091712;28;20028;-39
2023/01/07 08:48:48;;;;;;;0.43;0.40;;;;;;;;;;5090495;28;20099;-40
2023/01/07 08:51:14;;;;;;;0.45;0.38;;;;;;;;;;5069069;28;20025;-39
2023/01/07 08:53:40;;;;;;;0.47;0.45;;;;;;;;;;5052223;28;20021;-39
2023/01/07 08:56:06;;;;;;;1.13;0.50;;;;;;;;;;5036112;28;20500;-39
2023/01/07 08:58:32;;;;;;;0.85;0.57;;;;;;;;;;5070770;28;20477;-39
2023/01/07 09:01:02;;;;;;;0.90;0.68;;;;;;;;;;5094393;28;20046;-39
2023/01/07 09:03:28;;;;;;;0.50;0.40;;;;;;;;;;5094697;28;20057;-39
2023/01/07 09:05:54;;;;;;;0.65;0.45;;;;;;;;;;5093526;28;20052;-39
2023/01/07 09:08:20;;;;;;;1.15;0.40;;;;;;;;;;5094574;28;20012;-38
2023/01/07 09:10:47;;;;;;;1.00;0.47;;;;;;;;;;5094539;28;20122;-40
2023/01/07 09:13:13;;;;;;;0.90;0.50;;;;;;;;;;5094196;28;20110;-39
2023/01/07 09:15:40;;;;;;;0.68;0.52;;;;;;;;;;5095147;28;20016;-39
2023/01/07 09:18:06;;;;;;;0.60;0.57;;;;;;;;;;5093435;28;20032;-39
2023/01/07 09:20:32;;;;;;;0.60;0.43;;;;;;;;;;5091451;28;20086;-39
2023/01/07 09:22:58;;;;;;;1.60;1.05;;;;;;;;;;5054255;28;20028;-39
2023/01/07 09:25:24;;;;;;;0.60;0.43;;;;;;;;;;5054158;28;20063;-39
2023/01/07 09:27:50;;;;;;;0.60;0.50;;;;;;;;;;5035408;28;20128;-40
2023/01/07 09:30:16;;;;;;;0.80;0.40;;;;;;;;;;5054103;28;20491;-39
2023/01/07 09:32:42;;;;;;;0.82;0.40;;;;;;;;;;5054278;28;20036;-39
2023/01/07 09:35:09;;;;;;;0.47;0.40;;;;;;;;;;5057754;28;20025;-39
2023/01/07 09:37:35;;;;;;;0.55;0.40;;;;;;;;;;5094539;28;20484;-39
2023/01/07 09:40:02;;;;;;;0.50;0.40;;;;;;;;;;5093110;28;20047;-39
2023/01/07 09:42:40;;;;;;;0.40;0.40;;;;;;;;;;5094164;28;20457;-39
2023/01/07 09:45:15;;;;;;;0.40;0.40;;;;;;;;;;5092568;28;20779;-38
2023/01/07 09:47:43;;;;;;;0.35;0.35;;;;;;;;;;5094424;28;20024;-38
2023/01/07 09:50:13;;;;;;;0.43;0.32;;;;;;;;;;5092886;28;20024;-38
2023/01/07 09:52:51;;;;;;;1.85;0.47;;;;;;;;;;5057002;28;20025;-39
2023/01/07 09:55:31;;;;;;;0.40;0.40;;;;;;;;;;5053695;28;20024;-39
2023/01/07 09:57:57;;;;;;;0.50;0.45;;;;;;;;;;5061204;28;20020;-39
2023/01/07 10:00:23;;;;;;;0.70;0.38;;;;;;;;;;5073688;28;20036;-39
2023/01/07 10:03:08;;;;;;;0.77;0.57;;;;;;;;;;5072816;28;20534;-40
2023/01/07 10:05:37;;;;;;;0.77;0.40;;;;;;;;;;5071967;28;20071;-39
2023/01/07 10:08:22;;;;;;;0.40;0.38;;;;;;;;;;5072312;28;20074;-39
2023/01/07 10:11:06;;;;;;;0.47;0.30;;;;;;;;;;5073254;28;20024;-40
2023/01/07 10:13:40;;;;;;;0.57;0.50;;;;;;;;;;5072952;28;20020;-39
2023/01/07 10:16:06;;;;;;;0.80;0.60;;;;;;;;;;5092647;28;20028;-39
2023/01/07 10:18:35;;;;;;;0.68;0.52;;;;;;;;;;5093099;28;20031;-39
2023/01/07 10:21:16;;;;;;;0.70;0.60;;;;;;;;;;5080389;28;20040;-39
2023/01/07 10:23:45;;;;;;;0.90;0.60;;;;;;;;;;5053190;28;20051;-39
2023/01/07 10:26:30;;;;;;;0.77;0.70;;;;;;;;;;5052197;28;20099;-39
2023/01/07 10:29:06;;;;;;;0.77;0.47;;;;;;;;;;5051778;28;20075;-39
2023/01/07 10:31:32;;;;;;;1.08;0.55;;;;;;;;;;5053272;28;20021;-38
2023/01/07 10:33:58;;;;;;;0.47;0.30;;;;;;;;;;5052203;28;20025;-39
2023/01/07 10:36:26;;;;;;;0.40;0.35;;;;;;;;;;5078689;28;20025;-38
2023/01/07 10:38:52;;;;;;;0.52;0.50;;;;;;;;;;5091954;28;20036;-39
2023/01/07 10:41:22;;;;;;;0.80;0.50;;;;;;;;;;5093278;28;20031;-39
2023/01/07 10:44:04;;;;;;;0.70;0.50;;;;;;;;;;5092105;28;20077;-40
2023/01/07 10:46:36;;;;;;;1.40;0.90;;;;;;;;;;5068605;28;20528;-39
2023/01/07 10:49:07;;;;;;;0.40;0.40;;;;;;;;;;5051958;28;20147;-39
2023/01/07 10:51:39;;;;;;;0.70;0.50;;;;;;;;;;5052598;28;20021;-39
2023/01/07 10:54:05;;;;;;;;;;;;;;;;;;5051642;28;20021;-39
2023/01/07 10:56:37;;;;;;;0.80;0.80;;;;;;;;;;5052483;28;19924;-39
2023/01/07 10:59:03;;;;;;;0.60;0.40;;;;;;;;;;5063757;28;20414;-39
2023/01/07 11:01:36;;;;;;;0.40;0.40;;;;;;;;;;5072362;28;20034;-39
2023/01/07 11:04:03;;;;;;;1.00;0.70;;;;;;;;;;5071220;28;20063;-39
2023/01/07 11:06:32;;;;;;;1.33;0.60;;;;;;;;;;5058466;28;20124;-39
2023/01/07 11:08:58;;;;;;;0.50;0.47;;;;;;;;;;5050997;28;20112;-39
2023/01/07 11:11:24;;;;;;;0.75;0.63;;;;;;;;;;5052571;28;20155;-38
2023/01/07 11:13:59;;;;;;;0.75;0.50;;;;;;;;;;5051232;28;20029;-40
2023/01/07 11:16:27;;;;;;;0.65;0.50;;;;;;;;;;5056373;28;20016;-39
2023/01/07 11:18:57;;;;;;;0.80;0.57;;;;;;;;;;5070508;28;20055;-39
2023/01/07 11:21:38;;;;;;;0.32;0.32;;;;;;;;;;5034024;28;20037;-39
2023/01/07 11:24:23;;;;;;;0.63;0.63;;;;;;;;;;5030961;28;20037;-39
2023/01/07 11:26:49;;;;;;;0.52;0.50;;;;;;;;;;5031917;28;20021;-40
2023/01/07 11:29:15;;;;;;;0.43;0.40;;;;;;;;;;5031434;28;20170;-38
2023/01/07 11:31:57;;;;;;;0.80;0.68;;;;;;;;;;5032249;28;20522;-39
2023/01/07 11:34:23;;;;;;;0.63;0.47;;;;;;;;;;5031736;28;20029;-39
2023/01/07 11:36:49;;;;;;;0.85;0.75;;;;;;;;;;5064077;28;20066;-40
2023/01/07 11:39:20;;;;;;;0.57;0.57;;;;;;;;;;5071269;28;20036;-39
2023/01/07 11:41:55;;;;;;;0.60;0.60;;;;;;;;;;5071984;28;20024;-39
2023/01/07 11:44:22;;;;;;;0.52;0.43;;;;;;;;;;5053487;28;20124;-39
2023/01/07 11:46:48;;;;;;;1.00;0.60;;;;;;;;;;5053053;28;20533;-41
2023/01/07 11:49:28;;;;;;;0.50;0.45;;;;;;;;;;5030603;28;20037;-40
2023/01/07 11:51:54;;;;;;;0.60;0.60;;;;;;;;;;5031300;28;20022;-40
2023/01/07 11:54:22;;;;;;;1.10;0.50;;;;;;;;;;5031569;28;20415;-39
2023/01/07 11:56:48;;;;;;;0.80;0.60;;;;;;;;;;5031851;28;20021;-40
2023/01/07 11:59:20;;;;;;;1.13;0.60;;;;;;;;;;5050413;28;20147;-39
2023/01/07 12:01:46;;;;;;;;;;;;;;;;;;5052240;28;20040;-39
2023/01/07 12:04:25;;;;;;;0.73;0.50;;;;;;;;;;5050552;28;19909;-39
2023/01/07 12:06:53;;;;;;;0.70;0.50;;;;;;;;;;5087342;28;20408;-40
2023/01/07 12:09:24;;;;;;;0.93;0.70;;;;;;;;;;5091399;28;20481;-39
2023/01/07 12:11:52;;;;;;;0.65;0.60;;;;;;;;;;5091210;28;20032;-41
2023/01/07 12:14:26;;;;;;;0.80;0.55;;;;;;;;;;5091562;28;20103;-39
2023/01/07 12:16:52;;;;;;;0.45;0.40;;;;;;;;;;5076958;28;20031;-40
2023/01/07 12:19:18;;;;;;;0.45;0.45;;;;;;;;;;5050885;28;20029;-39
2023/01/07 12:21:50;;;;;;;0.82;0.60;;;;;;;;;;5051381;28;20024;-39
2023/01/07 12:24:16;;;;;;;0.88;0.73;;;;;;;;;;5051123;28;20461;-39
2023/01/07 12:26:54;;;;;;;1.20;0.65;;;;;;;;;;5051202;28;20044;-39
2023/01/07 12:29:25;;;;;;;0.98;0.60;;;;;;;;;;5054242;28;20029;-39
2023/01/07 12:32:07;;;;;;;0.80;0.80;;;;;;;;;;5054744;28;20021;-40
2023/01/07 12:34:41;;;;;;;1.30;0.60;;;;;;;;;;5055305;28;20031;-39
2023/01/07 12:37:34;;;;;;;0.93;0.70;;;;;;;;;;5092393;28;20024;-39
2023/01/07 12:40:16;;;;;;;1.15;1.05;;;;;;;;;;5089442;28;20439;-39
2023/01/07 12:42:44;;;;;;;0.60;0.52;;;;;;;;;;5095798;28;20020;-39
2023/01/07 12:45:18;;;;;;;1.00;0.55;;;;;;;;;;5094286;28;20031;-39
2023/01/07 12:47:50;;;;;;;0.60;0.60;;;;;;;;;;5049925;28;20021;-40
2023/01/07 12:50:28;;;;;;;0.70;0.60;;;;;;;;;;5071884;28;20032;-39
2023/01/07 12:53:00;;;;;;;0.85;0.68;;;;;;;;;;5073953;28;20540;-39
2023/01/07 12:55:32;;;;;;;0.60;0.50;;;;;;;;;;5074807;28;20063;-39
2023/01/07 12:57:59;;;;;;;0.65;0.63;;;;;;;;;;5076846;28;20479;-39
2023/01/07 13:00:27;;;;;;;0.93;0.70;;;;;;;;;;5095171;28;20036;-39
2023/01/07 13:02:53;;;;;;;0.40;0.40;;;;;;;;;;5093800;28;20024;-40
2023/01/07 13:05:38;;;;;;;0.43;0.43;;;;;;;;;;5094557;28;20047;-39
2023/01/07 13:08:21;;;;;;;0.45;0.45;;;;;;;;;;5093771;28;20376;-39
2023/01/07 13:10:51;;;;;;;0.73;0.52;;;;;;;;;;5094650;28;20461;-40
2023/01/07 13:13:29;;;;;;;0.75;0.50;;;;;;;;;;5094520;28;20031;-39
2023/01/07 13:15:56;;;;;;;0.65;0.63;;;;;;;;;;5073151;28;20491;-40
2023/01/07 13:18:22;;;;;;;0.93;0.50;;;;;;;;;;5094410;28;20016;-39
2023/01/07 13:21:07;;;;;;;0.73;0.50;;;;;;;;;;5094461;28;20035;-41
2023/01/07 13:23:51;;;;;;;0.68;0.60;;;;;;;;;;5093725;28;20492;-39
2023/01/07 13:26:26;;;;;;;1.23;0.60;;;;;;;;;;5094590;28;20028;-39
2023/01/07 13:28:58;;;;;;;0.80;0.70;;;;;;;;;;5093384;28;20099;-40
2023/01/07 13:31:33;;;;;;;0.80;0.70;;;;;;;;;;5094494;28;20070;-39
2023/01/07 13:34:18;;;;;;;0.60;0.50;;;;;;;;;;5093080;28;20028;-39
2023/01/07 13:37:02;;;;;;;0.82;0.70;;;;;;;;;;5078360;28;20491;-39
2023/01/07 13:39:28;;;;;;;1.33;0.70;;;;;;;;;;5073322;28;20516;-39
2023/01/07 13:41:57;;;;;;;1.35;0.82;;;;;;;;;;5072974;28;20025;-39
2023/01/07 13:44:29;;;;;;;0.82;0.60;;;;;;;;;;5073705;28;20148;-40
2023/01/07 13:46:55;;;;;;;;;;;;;;;;;;5077591;28;20031;-40
2023/01/07 13:49:28;;;;;;;1.50;1.05;;;;;;;;;;5058295;28;19908;-39
2023/01/07 13:51:55;;;;;;;0.70;0.50;;;;;;;;;;5052897;28;20017;-40
2023/01/07 13:54:39;;;;;;;0.73;0.60;;;;;;;;;;5053056;28;20462;-39
2023/01/07 13:57:23;;;;;;;1.10;0.60;;;;;;;;;;5055056;28;20470;-40
2023/01/07 13:59:53;;;;;;;0.98;0.70;;;;;;;;;;5072722;28;20033;-43
2023/01/07 14:02:20;;;;;;;1.58;0.60;;;;;;;;;;5093670;28;20021;-39
2023/01/07 14:04:48;;;;;;;1.42;1.33;;;;;;;;;;5093534;28;20473;-41
2023/01/07 14:07:14;;;;;;;0.93;0.63;;;;;;;;;;5093053;28;20098;-39
2023/01/07 14:09:40;;;;;;;0.85;0.60;;;;;;;;;;5075184;28;20032;-39
2023/01/07 14:12:15;;;;;;;0.57;0.57;;;;;;;;;;5093330;28;20024;-39
2023/01/07 14:14:56;;;;;;;0.60;0.50;;;;;;;;;;5093377;28;20028;-39
2023/01/07 14:17:35;;;;;;;0.98;0.55;;;;;;;;;;5061144;28;20058;-40
2023/01/07 14:20:18;;;;;;;0.60;0.60;;;;;;;;;;5051954;28;20056;-40
2023/01/07 14:22:58;;;;;;;0.88;0.55;;;;;;;;;;5053425;28;20033;-39
2023/01/07 14:25:30;;;;;;;0.60;0.60;;;;;;;;;;5053384;28;20481;-39
2023/01/07 14:27:56;;;;;;;1.10;0.80;;;;;;;;;;5051866;28;20544;-39
2023/01/07 14:30:45;;;;;;;0.50;0.50;;;;;;;;;;5052768;28;20025;-39
2023/01/07 14:33:22;;;;;;;1.10;0.95;;;;;;;;;;5041201;28;20038;-39
2023/01/07 14:36:08;;;;;;;0.70;0.60;;;;;;;;;;5050634;28;20016;-42
2023/01/07 14:38:34;;;;;;;0.63;0.60;;;;;;;;;;5092648;28;20425;-39
2023/01/07 14:41:03;;;;;;;0.75;0.43;;;;;;;;;;5092215;28;20086;-39
2023/01/07 14:43:44;;;;;;;0.90;0.57;;;;;;;;;;5092539;28;20519;-39
2023/01/07 14:46:22;;;;;;;1.08;0.60;;;;;;;;;;5084179;28;20958;-39
2023/01/07 14:49:00;;;;;;;1.02;0.90;;;;;;;;;;5072073;28;20460;-41
2023/01/07 14:51:35;;;;;;;0.80;0.55;;;;;;;;;;5072304;28;20056;-39
2023/01/07 14:54:07;;;;;;;1.10;0.70;;;;;;;;;;5071267;28;20035;-39
2023/01/07 14:56:33;;;;;;;;;;;;;;;;;;5073148;28;20082;-39
2023/01/07 14:59:17;;;;;;;1.05;0.60;;;;;;;;;;5071320;28;20353;-39